sensor_id;sensor_type;location;lat;lon;timestamp;pressure;altitude;pressure_sealevel;temperature;humidity
76586;BME280;65251;51.022;13.736;2023-01-26T00:00:17;100043.34;;;2.69;77.47
76586;BME280;65251;51.022;13.736;2023-01-26T00:00:49;100036.56;;;2.66;77.28
76586;BME280;65251;51.022;13.736;2023-01-26T00:01:22;100040.03;;;2.67;77.57
76586;BME280;65251;51.022;13.736;2023-01-26T00:01:53;100034.75;;;2.67;77.27
76586;BME280;65251;51.022;13.736;2023-01-26T00:02:25;100036.16;;;2.71;77.67
76586;BME280;65251;51.022;13.736;2023-01-26T00:02:56;100042.38;;;2.70;77.36
76586;BME280;65251;51.022;13.736;2023-01-26T00:03:26;100042.13;;;2.73;77.17
76586;BME280;65251;51.022;13.736;2023-01-26T00:03:59;100037.81;;;2.72;77.38
76586;BME280;65251;51.022;13.736;2023-01-26T00:04:30;100036.03;;;2.72;77.73
76586;BME280;65251;51.022;13.736;2023-01-26T00:05:01;100032.31;;;2.75;77.42
76586;BME280;65251;51.022;13.736;2023-01-26T00:05:35;100042.00;;;2.74;77.39
76586;BME280;65251;51.022;13.736;2023-01-26T00:06:08;100032.16;;;2.76;77.22
76586;BME280;65251;51.022;13.736;2023-01-26T00:06:39;100035.31;;;2.80;77.02
76586;BME280;65251;51.022;13.736;2023-01-26T00:07:11;100037.97;;;2.80;77.21
76586;BME280;65251;51.022;13.736;2023-01-26T00:07:41;100033.41;;;2.82;76.57
76586;BME280;65251;51.022;13.736;2023-01-26T00:08:14;100031.91;;;2.80;76.88
76586;BME280;65251;51.022;13.736;2023-01-26T00:08:48;100038.97;;;2.79;76.27
76586;BME280;65251;51.022;13.736;2023-01-26T00:09:19;100032.88;;;2.79;76.33
76586;BME280;65251;51.022;13.736;2023-01-26T00:09:50;100032.16;;;2.76;76.97
76586;BME280;65251;51.022;13.736;2023-01-26T00:10:21;100031.19;;;2.78;76.57
76586;BME280;65251;51.022;13.736;2023-01-26T00:10:52;100029.53;;;2.76;76.66
76586;BME280;65251;51.022;13.736;2023-01-26T00:11:24;100025.09;;;2.77;76.64
76586;BME280;65251;51.022;13.736;2023-01-26T00:11:57;100025.50;;;2.72;76.61
76586;BME280;65251;51.022;13.736;2023-01-26T00:12:27;100029.66;;;2.75;76.77
76586;BME280;65251;51.022;13.736;2023-01-26T00:12:58;100026.78;;;2.78;77.02
76586;BME280;65251;51.022;13.736;2023-01-26T00:13:30;100033.97;;;2.76;76.90
76586;BME280;65251;51.022;13.736;2023-01-26T00:14:00;100031.19;;;2.78;77.07
76586;BME280;65251;51.022;13.736;2023-01-26T00:14:31;100026.19;;;2.74;76.99
76586;BME280;65251;51.022;13.736;2023-01-26T00:15:19;100026.78;;;2.78;76.85
76586;BME280;65251;51.022;13.736;2023-01-26T00:15:50;100033.25;;;2.74;76.84
76586;BME280;65251;51.022;13.736;2023-01-26T00:16:22;100027.16;;;2.73;77.32
76586;BME280;65251;51.022;13.736;2023-01-26T00:16:53;100021.06;;;2.73;76.91
76586;BME280;65251;51.022;13.736;2023-01-26T00:17:25;100034.22;;;2.73;77.07
76586;BME280;65251;51.022;13.736;2023-01-26T00:17:55;100029.09;;;2.71;77.19
76586;BME280;65251;51.022;13.736;2023-01-26T00:18:26;100032.69;;;2.70;76.63
76586;BME280;65251;51.022;13.736;2023-01-26T00:18:57;100031.72;;;2.71;77.21
76586;BME280;65251;51.022;13.736;2023-01-26T00:19:30;100023.13;;;2.69;77.43
76586;BME280;65251;51.022;13.736;2023-01-26T00:20:01;100025.63;;;2.71;77.27
76586;BME280;65251;51.022;13.736;2023-01-26T00:20:31;100031.59;;;2.73;77.07
76586;BME280;65251;51.022;13.736;2023-01-26T00:21:04;100023.00;;;2.71;77.42
76586;BME280;65251;51.022;13.736;2023-01-26T00:21:35;100029.38;;;2.68;77.37
76586;BME280;65251;51.022;13.736;2023-01-26T00:22:06;100032.69;;;2.70;77.24
76586;BME280;65251;51.022;13.736;2023-01-26T00:22:37;100028.41;;;2.69;77.50
76586;BME280;65251;51.022;13.736;2023-01-26T00:23:08;100027.69;;;2.67;77.13
76586;BME280;65251;51.022;13.736;2023-01-26T00:23:39;100025.19;;;2.66;77.15
76586;BME280;65251;51.022;13.736;2023-01-26T00:24:11;100028.66;;;2.66;77.15
76586;BME280;65251;51.022;13.736;2023-01-26T00:24:41;100026.16;;;2.65;77.48
76586;BME280;65251;51.022;13.736;2023-01-26T00:25:12;100021.88;;;2.64;77.59
76586;BME280;65251;51.022;13.736;2023-01-26T00:25:44;100022.13;;;2.61;77.54
76586;BME280;65251;51.022;13.736;2023-01-26T00:26:17;100018.53;;;2.62;77.25
76586;BME280;65251;51.022;13.736;2023-01-26T00:26:48;100024.63;;;2.62;77.53
76586;BME280;65251;51.022;13.736;2023-01-26T00:27:20;100015.78;;;2.63;77.37
76586;BME280;65251;51.022;13.736;2023-01-26T00:27:50;100014.94;;;2.63;77.36
76586;BME280;65251;51.022;13.736;2023-01-26T00:28:21;100017.19;;;2.67;77.12
76586;BME280;65251;51.022;13.736;2023-01-26T00:28:53;100020.66;;;2.68;77.41
76586;BME280;65251;51.022;13.736;2023-01-26T00:29:24;100020.38;;;2.71;77.03
76586;BME280;65251;51.022;13.736;2023-01-26T00:29:54;100028.00;;;2.74;77.11
76586;BME280;65251;51.022;13.736;2023-01-26T00:30:26;100022.75;;;2.74;76.78
76586;BME280;65251;51.022;13.736;2023-01-26T00:31:01;100021.78;;;2.75;76.90
76586;BME280;65251;51.022;13.736;2023-01-26T00:31:32;100022.19;;;2.70;76.83
76586;BME280;65251;51.022;13.736;2023-01-26T00:32:04;100018.53;;;2.62;77.42
76586;BME280;65251;51.022;13.736;2023-01-26T00:32:35;100016.75;;;2.62;77.65
76586;BME280;65251;51.022;13.736;2023-01-26T00:33:06;100022.72;;;2.64;77.28
76586;BME280;65251;51.022;13.736;2023-01-26T00:33:38;100026.88;;;2.67;77.40
76586;BME280;65251;51.022;13.736;2023-01-26T00:34:08;100018.00;;;2.68;77.05
76586;BME280;65251;51.022;13.736;2023-01-26T00:34:40;100016.78;;;2.72;77.45
76586;BME280;65251;51.022;13.736;2023-01-26T00:35:11;100015.81;;;2.73;77.18
76586;BME280;65251;51.022;13.736;2023-01-26T00:35:43;100016.66;;;2.73;77.19
76586;BME280;65251;51.022;13.736;2023-01-26T00:36:14;100021.63;;;2.76;77.03
76586;BME280;65251;51.022;13.736;2023-01-26T00:36:45;100023.44;;;2.76;77.23
76586;BME280;65251;51.022;13.736;2023-01-26T00:37:16;100016.38;;;2.76;76.96
76586;BME280;65251;51.022;13.736;2023-01-26T00:37:47;100011.25;;;2.75;77.22
76586;BME280;65251;51.022;13.736;2023-01-26T00:38:18;100004.88;;;2.78;76.93
76586;BME280;65251;51.022;13.736;2023-01-26T00:38:50;100015.41;;;2.78;77.27
76586;BME280;65251;51.022;13.736;2023-01-26T00:39:20;100009.19;;;2.79;76.65
76586;BME280;65251;51.022;13.736;2023-01-26T00:39:51;100005.41;;;2.81;77.32
76586;BME280;65251;51.022;13.736;2023-01-26T00:40:23;100008.22;;;2.80;76.74
76586;BME280;65251;51.022;13.736;2023-01-26T00:40:54;100003.47;;;2.83;76.91
76586;BME280;65251;51.022;13.736;2023-01-26T00:41:25;100003.63;;;2.82;77.03
76586;BME280;65251;51.022;13.736;2023-01-26T00:42:14;100003.63;;;2.82;77.24
76586;BME280;65251;51.022;13.736;2023-01-26T00:42:45;100009.00;;;2.80;77.13
76586;BME280;65251;51.022;13.736;2023-01-26T00:43:16;99998.66;;;2.79;76.65
76586;BME280;65251;51.022;13.736;2023-01-26T00:43:47;100014.28;;;2.80;77.09
76586;BME280;65251;51.022;13.736;2023-01-26T00:44:18;100009.19;;;2.79;77.14
76586;BME280;65251;51.022;13.736;2023-01-26T00:44:50;100012.09;;;2.75;77.01
76586;BME280;65251;51.022;13.736;2023-01-26T00:45:21;100008.63;;;2.75;77.42
76586;BME280;65251;51.022;13.736;2023-01-26T00:45:52;100006.69;;;2.77;77.23
76586;BME280;65251;51.022;13.736;2023-01-26T00:46:23;100007.53;;;2.78;77.15
76586;BME280;65251;51.022;13.736;2023-01-26T00:46:54;100002.13;;;2.79;76.91
76586;BME280;65251;51.022;13.736;2023-01-26T00:47:25;100013.63;;;2.78;76.80
76586;BME280;65251;51.022;13.736;2023-01-26T00:47:56;100003.75;;;2.80;77.07
76586;BME280;65251;51.022;13.736;2023-01-26T00:48:28;100004.44;;;2.82;76.45
76586;BME280;65251;51.022;13.736;2023-01-26T00:48:58;100007.22;;;2.81;76.71
76586;BME280;65251;51.022;13.736;2023-01-26T00:49:31;100002.94;;;2.80;76.79
76586;BME280;65251;51.022;13.736;2023-01-26T00:50:03;100004.88;;;2.78;76.71
76586;BME280;65251;51.022;13.736;2023-01-26T00:50:34;100008.22;;;2.80;76.62
76586;BME280;65251;51.022;13.736;2023-01-26T00:51:06;100003.75;;;2.80;76.88
76586;BME280;65251;51.022;13.736;2023-01-26T00:51:37;100006.38;;;2.80;77.06
76586;BME280;65251;51.022;13.736;2023-01-26T00:52:08;100003.63;;;2.82;76.82
76586;BME280;65251;51.022;13.736;2023-01-26T00:52:40;100003.91;;;2.79;77.13
76586;BME280;65251;51.022;13.736;2023-01-26T00:53:11;100005.41;;;2.81;77.02
76586;BME280;65251;51.022;13.736;2023-01-26T00:53:41;100003.63;;;2.82;77.20
76586;BME280;65251;51.022;13.736;2023-01-26T00:54:13;99998.34;;;2.82;76.77
76586;BME280;65251;51.022;13.736;2023-01-26T00:54:44;99997.00;;;2.78;76.82
76586;BME280;65251;51.022;13.736;2023-01-26T00:55:15;100009.59;;;2.74;76.96
76586;BME280;65251;51.022;13.736;2023-01-26T00:55:46;100000.59;;;2.76;77.18
76586;BME280;65251;51.022;13.736;2023-01-26T00:56:17;100005.84;;;2.76;77.00
76586;BME280;65251;51.022;13.736;2023-01-26T00:56:48;100007.50;;;2.68;77.41
76586;BME280;65251;51.022;13.736;2023-01-26T00:57:19;100009.81;;;2.61;77.63
76586;BME280;65251;51.022;13.736;2023-01-26T00:57:50;100008.31;;;2.59;78.03
76586;BME280;65251;51.022;13.736;2023-01-26T00:58:21;100002.09;;;2.60;77.78
76586;BME280;65251;51.022;13.736;2023-01-26T00:58:52;100008.84;;;2.62;77.67
76586;BME280;65251;51.022;13.736;2023-01-26T00:59:23;100007.06;;;2.63;77.62
76586;BME280;65251;51.022;13.736;2023-01-26T00:59:55;99993.91;;;2.63;77.22
76586;BME280;65251;51.022;13.736;2023-01-26T01:00:26;100000.81;;;2.64;77.53
76586;BME280;65251;51.022;13.736;2023-01-26T01:00:58;99999.88;;;2.65;77.83
76586;BME280;65251;51.022;13.736;2023-01-26T01:01:29;100009.28;;;2.67;77.40
76586;BME280;65251;51.022;13.736;2023-01-26T01:02:00;100004.72;;;2.69;77.74
76586;BME280;65251;51.022;13.736;2023-01-26T01:02:32;100000.44;;;2.68;77.85
76586;BME280;65251;51.022;13.736;2023-01-26T01:03:03;100001.13;;;2.70;77.68
76586;BME280;65251;51.022;13.736;2023-01-26T01:03:34;100003.50;;;2.73;77.32
76586;BME280;65251;51.022;13.736;2023-01-26T01:04:05;100008.75;;;2.73;77.55
76586;BME280;65251;51.022;13.736;2023-01-26T01:04:36;100004.72;;;2.69;77.47
76586;BME280;65251;51.022;13.736;2023-01-26T01:05:09;100006.38;;;2.70;77.54
76586;BME280;65251;51.022;13.736;2023-01-26T01:05:40;100003.50;;;2.73;77.88
76586;BME280;65251;51.022;13.736;2023-01-26T01:06:12;100010.41;;;2.74;77.74
76586;BME280;65251;51.022;13.736;2023-01-26T01:06:42;100004.31;;;2.74;77.66
76586;BME280;65251;51.022;13.736;2023-01-26T01:07:13;100005.16;;;2.74;77.68
76586;BME280;65251;51.022;13.736;2023-01-26T01:07:45;100005.28;;;2.73;77.63
76586;BME280;65251;51.022;13.736;2023-01-26T01:08:16;100008.19;;;2.70;77.59
76586;BME280;65251;51.022;13.736;2023-01-26T01:08:46;100005.41;;;2.71;77.69
76586;BME280;65251;51.022;13.736;2023-01-26T01:09:18;100009.72;;;2.72;77.54
76586;BME280;65251;51.022;13.736;2023-01-26T01:09:49;100004.59;;;2.71;77.56
76586;BME280;65251;51.022;13.736;2023-01-26T01:10:20;100008.06;;;2.71;77.74
76586;BME280;65251;51.022;13.736;2023-01-26T01:11:01;100007.22;;;2.71;77.38
76586;BME280;65251;51.022;13.736;2023-01-26T01:11:32;100004.59;;;2.71;77.79
76586;BME280;65251;51.022;13.736;2023-01-26T01:12:04;100007.22;;;2.71;77.58
76586;BME280;65251;51.022;13.736;2023-01-26T01:12:35;100005.41;;;2.62;77.99
76586;BME280;65251;51.022;13.736;2023-01-26T01:13:06;100002.75;;;2.62;77.71
76586;BME280;65251;51.022;13.736;2023-01-26T01:13:37;100004.56;;;2.61;77.86
76586;BME280;65251;51.022;13.736;2023-01-26T01:14:10;100003.59;;;2.53;78.08
76586;BME280;65251;51.022;13.736;2023-01-26T01:14:41;100004.56;;;2.52;78.39
76586;BME280;65251;51.022;13.736;2023-01-26T01:15:12;99996.66;;;2.52;78.54
76586;BME280;65251;51.022;13.736;2023-01-26T01:15:44;100006.91;;;2.55;78.32
76586;BME280;65251;51.022;13.736;2023-01-26T01:16:15;100002.63;;;2.54;78.42
76586;BME280;65251;51.022;13.736;2023-01-26T01:16:46;100002.22;;;2.58;78.33
76586;BME280;65251;51.022;13.736;2023-01-26T01:17:18;100005.69;;;2.59;77.67
76586;BME280;65251;51.022;13.736;2023-01-26T01:17:49;100006.09;;;2.64;77.56
76586;BME280;65251;51.022;13.736;2023-01-26T01:18:19;100003.31;;;2.65;77.65
76586;BME280;65251;51.022;13.736;2023-01-26T01:18:52;100004.28;;;2.64;78.13
76586;BME280;65251;51.022;13.736;2023-01-26T01:19:24;100000.97;;;2.62;77.65
76586;BME280;65251;51.022;13.736;2023-01-26T01:19:55;100003.31;;;2.65;77.88
76586;BME280;65251;51.022;13.736;2023-01-26T01:20:27;100007.19;;;2.61;77.64
76586;BME280;65251;51.022;13.736;2023-01-26T01:20:58;100011.47;;;2.62;77.82
76586;BME280;65251;51.022;13.736;2023-01-26T01:21:30;100008.16;;;2.60;77.86
76586;BME280;65251;51.022;13.736;2023-01-26T01:22:02;100003.91;;;2.59;77.75
76586;BME280;65251;51.022;13.736;2023-01-26T01:22:34;100002.09;;;2.60;77.84
76586;BME280;65251;51.022;13.736;2023-01-26T01:23:05;100001.53;;;2.56;77.68
76586;BME280;65251;51.022;13.736;2023-01-26T01:23:36;100003.31;;;2.56;77.92
76586;BME280;65251;51.022;13.736;2023-01-26T01:24:07;100001.66;;;2.55;78.30
76586;BME280;65251;51.022;13.736;2023-01-26T01:24:39;100004.56;;;2.52;78.15
76586;BME280;65251;51.022;13.736;2023-01-26T01:25:10;100002.19;;;2.49;78.16
76586;BME280;65251;51.022;13.736;2023-01-26T01:25:40;100003.03;;;2.39;78.07
76586;BME280;65251;51.022;13.736;2023-01-26T01:26:13;100002.72;;;2.42;78.47
76586;BME280;65251;51.022;13.736;2023-01-26T01:26:48;100003.28;;;2.46;77.96
76586;BME280;65251;51.022;13.736;2023-01-26T01:27:18;100004.94;;;2.37;78.36
76586;BME280;65251;51.022;13.736;2023-01-26T01:27:50;100001.88;;;2.32;78.33
76586;BME280;65251;51.022;13.736;2023-01-26T01:28:21;99997.72;;;2.30;78.56
76586;BME280;65251;51.022;13.736;2023-01-26T01:28:52;100003.09;;;2.28;78.73
76586;BME280;65251;51.022;13.736;2023-01-26T01:29:25;99998.56;;;2.30;78.95
76586;BME280;65251;51.022;13.736;2023-01-26T01:29:55;99998.28;;;2.33;78.72
76586;BME280;65251;51.022;13.736;2023-01-26T01:30:26;99996.09;;;2.38;78.65
76586;BME280;65251;51.022;13.736;2023-01-26T01:30:58;99991.50;;;2.40;78.30
76586;BME280;65251;51.022;13.736;2023-01-26T01:31:29;99992.78;;;2.46;78.41
76586;BME280;65251;51.022;13.736;2023-01-26T01:31:59;99993.03;;;2.43;78.10
76586;BME280;65251;51.022;13.736;2023-01-26T01:32:33;99989.56;;;2.42;78.25
76586;BME280;65251;51.022;13.736;2023-01-26T01:33:03;99995.28;;;2.48;78.03
76586;BME280;65251;51.022;13.736;2023-01-26T01:33:35;99998.16;;;2.45;77.89
76586;BME280;65251;51.022;13.736;2023-01-26T01:34:06;99997.19;;;2.46;78.48
76586;BME280;65251;51.022;13.736;2023-01-26T01:34:37;99996.66;;;2.52;78.15
76586;BME280;65251;51.022;13.736;2023-01-26T01:35:09;99996.66;;;2.52;78.13
76586;BME280;65251;51.022;13.736;2023-01-26T01:35:41;99995.00;;;2.51;77.80
76586;BME280;65251;51.022;13.736;2023-01-26T01:36:13;99994.59;;;2.55;77.83
76586;BME280;65251;51.022;13.736;2023-01-26T01:36:44;99995.44;;;2.56;77.92
76586;BME280;65251;51.022;13.736;2023-01-26T01:37:17;99990.88;;;2.58;77.82
76586;BME280;65251;51.022;13.736;2023-01-26T01:37:48;99989.59;;;2.62;77.77
76586;BME280;65251;51.022;13.736;2023-01-26T01:38:18;99991.13;;;2.64;77.19
76586;BME280;65251;51.022;13.736;2023-01-26T01:38:50;99987.69;;;2.64;77.57
76586;BME280;65251;51.022;13.736;2023-01-26T01:39:21;99985.19;;;2.62;77.58
76586;BME280;65251;51.022;13.736;2023-01-26T01:39:52;99991.00;;;2.66;77.71
76586;BME280;65251;51.022;13.736;2023-01-26T01:40:23;99984.06;;;2.65;77.30
76586;BME280;65251;51.022;13.736;2023-01-26T01:40:55;99984.22;;;2.63;77.86
76586;BME280;65251;51.022;13.736;2023-01-26T01:41:26;99988.38;;;2.66;77.31
76586;BME280;65251;51.022;13.736;2023-01-26T01:41:58;99987.28;;;2.68;77.61
76586;BME280;65251;51.022;13.736;2023-01-26T01:42:28;99986.56;;;2.66;77.43
76586;BME280;65251;51.022;13.736;2023-01-26T01:42:59;99985.88;;;2.64;77.27
76586;BME280;65251;51.022;13.736;2023-01-26T01:43:31;99993.06;;;2.62;77.65
76586;BME280;65251;51.022;13.736;2023-01-26T01:44:12;99983.50;;;2.61;77.76
76586;BME280;65251;51.022;13.736;2023-01-26T01:45:55;99976.06;;;2.57;77.81
76586;BME280;65251;51.022;13.736;2023-01-26T01:46:30;99983.53;;;2.52;77.39
76586;BME280;65251;51.022;13.736;2023-01-26T01:47:08;99978.53;;;2.49;77.64
76586;BME280;65251;51.022;13.736;2023-01-26T01:47:41;99981.41;;;2.46;77.88
76586;BME280;65251;51.022;13.736;2023-01-26T01:48:21;99973.41;;;2.47;78.26
76586;BME280;65251;51.022;13.736;2023-01-26T01:48:59;99976.03;;;2.47;78.40
76586;BME280;65251;51.022;13.736;2023-01-26T01:49:35;99969.38;;;2.43;78.29
76586;BME280;65251;51.022;13.736;2023-01-26T01:50:16;99967.44;;;2.45;78.22
76586;BME280;65251;51.022;13.736;2023-01-26T01:50:52;99970.06;;;2.45;78.35
76586;BME280;65251;51.022;13.736;2023-01-26T01:51:32;99968.28;;;2.46;78.65
76586;BME280;65251;51.022;13.736;2023-01-26T01:52:09;99970.50;;;2.50;77.94
76586;BME280;65251;51.022;13.736;2023-01-26T01:52:42;99969.25;;;2.54;77.86
76586;BME280;65251;51.022;13.736;2023-01-26T01:53:18;99966.50;;;2.56;78.10
76586;BME280;65251;51.022;13.736;2023-01-26T01:53:57;99960.28;;;2.57;78.09
76586;BME280;65251;51.022;13.736;2023-01-26T01:54:36;99961.09;;;2.57;78.11
76586;BME280;65251;51.022;13.736;2023-01-26T01:55:12;99964.84;;;2.55;77.84
76586;BME280;65251;51.022;13.736;2023-01-26T01:55:45;99961.25;;;2.56;78.14
76586;BME280;65251;51.022;13.736;2023-01-26T01:56:21;99965.53;;;2.57;78.18
76586;BME280;65251;51.022;13.736;2023-01-26T01:56:58;99960.00;;;2.60;78.14
76586;BME280;65251;51.022;13.736;2023-01-26T01:57:34;99962.63;;;2.60;77.78
76586;BME280;65251;51.022;13.736;2023-01-26T01:58:14;99961.38;;;2.64;77.83
76586;BME280;65251;51.022;13.736;2023-01-26T01:58:49;99960.41;;;2.65;77.63
76586;BME280;65251;51.022;13.736;2023-01-26T01:59:22;99960.41;;;2.65;77.62
76586;BME280;65251;51.022;13.736;2023-01-26T02:00:01;99963.03;;;2.65;77.33
76586;BME280;65251;51.022;13.736;2023-01-26T02:00:34;99962.06;;;2.66;77.93
76586;BME280;65251;51.022;13.736;2023-01-26T02:01:05;99955.16;;;2.65;77.47
76586;BME280;65251;51.022;13.736;2023-01-26T02:01:36;99959.88;;;2.71;77.96
76586;BME280;65251;51.022;13.736;2023-01-26T02:02:08;99959.31;;;2.67;77.55
76586;BME280;65251;51.022;13.736;2023-01-26T02:02:43;99958.34;;;2.68;77.35
76586;BME280;65251;51.022;13.736;2023-01-26T02:03:16;99953.91;;;2.69;77.48
76586;BME280;65251;51.022;13.736;2023-01-26T02:03:51;99959.88;;;2.71;77.15
76586;BME280;65251;51.022;13.736;2023-01-26T02:04:25;99952.94;;;2.70;77.15
76586;BME280;65251;51.022;13.736;2023-01-26T02:05:03;99949.34;;;2.71;76.99
76586;BME280;65251;51.022;13.736;2023-01-26T02:05:44;99955.31;;;2.73;76.85
76586;BME280;65251;51.022;13.736;2023-01-26T02:06:25;99955.56;;;2.70;77.14
76586;BME280;65251;51.022;13.736;2023-01-26T02:06:59;99954.75;;;2.69;77.38
76586;BME280;65251;51.022;13.736;2023-01-26T02:07:31;99955.00;;;2.66;77.38
76586;BME280;65251;51.022;13.736;2023-01-26T02:08:05;99950.00;;;2.63;77.53
76586;BME280;65251;51.022;13.736;2023-01-26T02:08:38;99947.66;;;2.60;77.78
76586;BME280;65251;51.022;13.736;2023-01-26T02:09:10;99953.34;;;2.65;77.81
76586;BME280;65251;51.022;13.736;2023-01-26T02:10:04;99949.31;;;2.61;77.19
76586;BME280;65251;51.022;13.736;2023-01-26T02:10:53;99948.66;;;2.59;77.74
76586;BME280;65251;51.022;13.736;2023-01-26T02:11:30;99946.56;;;2.53;77.49
76586;BME280;65251;51.022;13.736;2023-01-26T02:12:06;99951.25;;;2.50;77.62
76586;BME280;65251;51.022;13.736;2023-01-26T02:12:38;99947.78;;;2.49;78.08
76586;BME280;65251;51.022;13.736;2023-01-26T02:13:11;99938.81;;;2.52;77.86
76586;BME280;65251;51.022;13.736;2023-01-26T02:13:47;99944.91;;;2.52;78.34
76586;BME280;65251;51.022;13.736;2023-01-26T02:14:18;99948.50;;;2.51;78.28
76586;BME280;65251;51.022;13.736;2023-01-26T02:14:51;99941.44;;;2.52;77.87
76586;BME280;65251;51.022;13.736;2023-01-26T02:15:23;99948.50;;;2.51;78.17
76586;BME280;65251;51.022;13.736;2023-01-26T02:15:57;99948.50;;;2.51;77.76
76586;BME280;65251;51.022;13.736;2023-01-26T02:16:28;99943.94;;;2.53;78.00
76586;BME280;65251;51.022;13.736;2023-01-26T02:17:00;99944.06;;;2.52;78.04
76586;BME280;65251;51.022;13.736;2023-01-26T02:17:31;99943.38;;;2.50;78.15
76586;BME280;65251;51.022;13.736;2023-01-26T02:18:04;99937.41;;;2.48;78.11
76586;BME280;65251;51.022;13.736;2023-01-26T02:18:35;99939.78;;;2.51;78.35
76586;BME280;65251;51.022;13.736;2023-01-26T02:19:17;99936.31;;;2.50;78.01
76586;BME280;65251;51.022;13.736;2023-01-26T02:20:02;99943.63;;;2.47;78.46
76586;BME280;65251;51.022;13.736;2023-01-26T02:20:42;99941.69;;;2.49;78.05
76586;BME280;65251;51.022;13.736;2023-01-26T02:21:17;99941.00;;;2.47;77.98
76586;BME280;65251;51.022;13.736;2023-01-26T02:21:55;99935.75;;;2.47;78.31
76586;BME280;65251;51.022;13.736;2023-01-26T02:22:46;99936.72;;;2.46;78.25
76586;BME280;65251;51.022;13.736;2023-01-26T02:23:33;99934.91;;;2.46;78.21
76586;BME280;65251;51.022;13.736;2023-01-26T02:24:14;99939.34;;;2.46;78.27
76586;BME280;65251;51.022;13.736;2023-01-26T02:24:48;99935.75;;;2.47;78.29
76586;BME280;65251;51.022;13.736;2023-01-26T02:25:30;99934.91;;;2.46;78.07
76586;BME280;65251;51.022;13.736;2023-01-26T02:26:10;99935.47;;;2.50;77.66
76586;BME280;65251;51.022;13.736;2023-01-26T02:26:42;99932.84;;;2.50;77.79
76586;BME280;65251;51.022;13.736;2023-01-26T02:27:13;99925.78;;;2.50;77.65
76586;BME280;65251;51.022;13.736;2023-01-26T02:27:45;99930.78;;;2.53;77.43
76586;BME280;65251;51.022;13.736;2023-01-26T02:28:15;99928.97;;;2.54;77.94
76586;BME280;65251;51.022;13.736;2023-01-26T02:28:47;99926.22;;;2.55;77.47
76586;BME280;65251;51.022;13.736;2023-01-26T02:29:20;99925.13;;;2.58;77.29
76586;BME280;65251;51.022;13.736;2023-01-26T02:29:53;99923.97;;;2.60;77.32
76586;BME280;65251;51.022;13.736;2023-01-26T02:30:27;99915.81;;;2.63;77.37
76586;BME280;65251;51.022;13.736;2023-01-26T02:30:59;99915.53;;;2.66;76.66
76586;BME280;65251;51.022;13.736;2023-01-26T02:31:30;99916.38;;;2.67;77.07
76586;BME280;65251;51.022;13.736;2023-01-26T02:32:02;99910.97;;;2.68;76.49
76586;BME280;65251;51.022;13.736;2023-01-26T02:32:33;99913.06;;;2.65;76.99
76586;BME280;65251;51.022;13.736;2023-01-26T02:33:04;99910.16;;;2.68;76.87
76586;BME280;65251;51.022;13.736;2023-01-26T02:33:36;99909.44;;;2.66;76.66
76586;BME280;65251;51.022;13.736;2023-01-26T02:34:07;99907.25;;;2.71;76.85
76586;BME280;65251;51.022;13.736;2023-01-26T02:34:38;99904.63;;;2.71;76.73
76586;BME280;65251;51.022;13.736;2023-01-26T02:35:09;99905.59;;;2.70;76.12
76586;BME280;65251;51.022;13.736;2023-01-26T02:35:40;99900.59;;;2.67;76.71
76586;BME280;65251;51.022;13.736;2023-01-26T02:36:18;99896.16;;;2.67;76.60
76586;BME280;65251;51.022;13.736;2023-01-26T02:36:55;99902.53;;;2.65;76.76
76586;BME280;65251;51.022;13.736;2023-01-26T02:37:28;99909.31;;;2.67;76.94
76586;BME280;65251;51.022;13.736;2023-01-26T02:37:58;99900.31;;;2.70;76.54
76586;BME280;65251;51.022;13.736;2023-01-26T02:38:36;99907.94;;;2.73;76.80
76586;BME280;65251;51.022;13.736;2023-01-26T02:39:21;99904.88;;;2.68;76.34
76586;BME280;65251;51.022;13.736;2023-01-26T02:40:01;99907.53;;;2.68;76.62
76586;BME280;65251;51.022;13.736;2023-01-26T02:40:42;99903.22;;;2.67;76.61
76586;BME280;65251;51.022;13.736;2023-01-26T02:41:17;99905.03;;;2.66;76.85
76586;BME280;65251;51.022;13.736;2023-01-26T02:42:08;99894.50;;;2.66;77.07
76586;BME280;65251;51.022;13.736;2023-01-26T02:42:58;99900.16;;;2.62;76.99
76586;BME280;65251;51.022;13.736;2023-01-26T02:43:31;99897.28;;;2.65;76.97
76586;BME280;65251;51.022;13.736;2023-01-26T02:44:04;99890.34;;;2.64;77.07
76586;BME280;65251;51.022;13.736;2023-01-26T02:44:38;99899.22;;;2.63;77.12
76586;BME280;65251;51.022;13.736;2023-01-26T02:45:14;99894.06;;;2.61;77.09
76586;BME280;65251;51.022;13.736;2023-01-26T02:45:46;99893.41;;;2.59;77.32
76586;BME280;65251;51.022;13.736;2023-01-26T02:46:17;99891.44;;;2.61;77.66
76586;BME280;65251;51.022;13.736;2023-01-26T02:46:48;99889.00;;;2.60;77.07
76586;BME280;65251;51.022;13.736;2023-01-26T02:47:19;99886.19;;;2.61;77.21
76586;BME280;65251;51.022;13.736;2023-01-26T02:47:50;99893.81;;;2.64;77.78
76586;BME280;65251;51.022;13.736;2023-01-26T02:48:21;99887.72;;;2.64;77.02
76586;BME280;65251;51.022;13.736;2023-01-26T02:49:07;99886.75;;;2.65;77.04
76586;BME280;65251;51.022;13.736;2023-01-26T02:49:56;99883.84;;;2.68;77.26
76586;BME280;65251;51.022;13.736;2023-01-26T02:50:28;99887.16;;;2.70;77.06
76586;BME280;65251;51.022;13.736;2023-01-26T02:50:59;99889.66;;;2.71;77.10
76586;BME280;65251;51.022;13.736;2023-01-26T02:51:30;99883.72;;;2.69;77.04
76586;BME280;65251;51.022;13.736;2023-01-26T02:52:01;99888.97;;;2.69;77.35
76586;BME280;65251;51.022;13.736;2023-01-26T02:52:31;99891.72;;;2.68;76.91
76586;BME280;65251;51.022;13.736;2023-01-26T02:53:03;99891.03;;;2.66;77.04
76586;BME280;65251;51.022;13.736;2023-01-26T02:53:34;99884.13;;;2.65;77.22
76586;BME280;65251;51.022;13.736;2023-01-26T02:54:05;99883.56;;;2.61;77.10
76586;BME280;65251;51.022;13.736;2023-01-26T02:54:35;99882.06;;;2.59;77.54
76586;BME280;65251;51.022;13.736;2023-01-26T02:55:25;99884.00;;;2.57;77.48